sensor_id;sensor_type;location;lat;lon;timestamp;P1;durP1;ratioP1;P2;durP2;ratioP2
15293;SDS011;7748;52.474;13.454;2022-11-20T00:00:54;14.87;;;9.47;;
15293;SDS011;7748;52.474;13.454;2022-11-20T00:03:22;14.37;;;9.40;;
15293;SDS011;7748;52.474;13.454;2022-11-20T00:05:50;13.25;;;9.43;;
15293;SDS011;7748;52.474;13.454;2022-11-20T00:08:18;15.97;;;10.20;;
15293;SDS011;7748;52.474;13.454;2022-11-20T00:10:47;16.13;;;10.47;;
15293;SDS011;7748;52.474;13.454;2022-11-20T00:13:16;17.40;;;10.00;;
15293;SDS011;7748;52.474;13.454;2022-11-20T00:15:44;16.17;;;10.27;;
15293;SDS011;7748;52.474;13.454;2022-11-20T00:18:12;14.90;;;10.10;;
15293;SDS011;7748;52.474;13.454;2022-11-20T00:20:40;16.57;;;9.83;;
15293;SDS011;7748;52.474;13.454;2022-11-20T00:23:08;16.90;;;10.37;;
15293;SDS011;7748;52.474;13.454;2022-11-20T00:25:36;17.87;;;10.23;;
15293;SDS011;7748;52.474;13.454;2022-11-20T00:28:05;15.17;;;9.67;;
15293;SDS011;7748;52.474;13.454;2022-11-20T00:30:33;13.00;;;8.87;;
15293;SDS011;7748;52.474;13.454;2022-11-20T00:33:01;20.00;;;11.43;;
15293;SDS011;7748;52.474;13.454;2022-11-20T00:35:29;16.13;;;10.27;;
15293;SDS011;7748;52.474;13.454;2022-11-20T00:37:57;15.43;;;9.60;;
15293;SDS011;7748;52.474;13.454;2022-11-20T00:40:25;17.97;;;10.73;;
15293;SDS011;7748;52.474;13.454;2022-11-20T00:42:53;13.87;;;9.37;;
15293;SDS011;7748;52.474;13.454;2022-11-20T00:45:22;15.57;;;9.47;;
15293;SDS011;7748;52.474;13.454;2022-11-20T00:47:50;17.83;;;10.90;;
15293;SDS011;7748;52.474;13.454;2022-11-20T00:50:18;47.60;;;19.33;;
15293;SDS011;7748;52.474;13.454;2022-11-20T00:52:46;17.73;;;10.77;;
15293;SDS011;7748;52.474;13.454;2022-11-20T00:55:14;16.33;;;10.73;;
15293;SDS011;7748;52.474;13.454;2022-11-20T00:57:42;15.20;;;9.50;;
15293;SDS011;7748;52.474;13.454;2022-11-20T01:00:10;13.87;;;8.93;;
15293;SDS011;7748;52.474;13.454;2022-11-20T01:02:40;17.87;;;10.73;;
15293;SDS011;7748;52.474;13.454;2022-11-20T01:05:07;14.33;;;9.67;;
15293;SDS011;7748;52.474;13.454;2022-11-20T01:07:36;16.95;;;10.35;;
15293;SDS011;7748;52.474;13.454;2022-11-20T01:10:05;16.80;;;10.23;;
15293;SDS011;7748;52.474;13.454;2022-11-20T01:12:33;15.27;;;10.32;;
15293;SDS011;7748;52.474;13.454;2022-11-20T01:15:03;18.47;;;8.87;;
15293;SDS011;7748;52.474;13.454;2022-11-20T01:17:32;24.67;;;9.90;;
15293;SDS011;7748;52.474;13.454;2022-11-20T01:20:01;14.63;;;9.77;;
15293;SDS011;7748;52.474;13.454;2022-11-20T01:22:29;15.87;;;10.33;;
15293;SDS011;7748;52.474;13.454;2022-11-20T01:24:57;12.07;;;8.83;;
15293;SDS011;7748;52.474;13.454;2022-11-20T01:27:25;15.67;;;8.97;;
15293;SDS011;7748;52.474;13.454;2022-11-20T01:29:53;14.05;;;9.23;;
15293;SDS011;7748;52.474;13.454;2022-11-20T01:32:26;16.23;;;10.67;;
15293;SDS011;7748;52.474;13.454;2022-11-20T01:34:54;17.17;;;10.53;;
15293;SDS011;7748;52.474;13.454;2022-11-20T01:37:23;14.87;;;9.90;;
15293;SDS011;7748;52.474;13.454;2022-11-20T01:39:51;17.70;;;9.73;;
15293;SDS011;7748;52.474;13.454;2022-11-20T01:42:19;15.68;;;10.23;;
15293;SDS011;7748;52.474;13.454;2022-11-20T01:48:06;16.85;;;10.13;;
15293;SDS011;7748;52.474;13.454;2022-11-20T01:50:34;15.57;;;10.23;;
15293;SDS011;7748;52.474;13.454;2022-11-20T01:53:04;17.27;;;10.30;;
15293;SDS011;7748;52.474;13.454;2022-11-20T01:55:36;16.42;;;10.32;;
15293;SDS011;7748;52.474;13.454;2022-11-20T01:58:09;22.40;;;10.40;;
15293;SDS011;7748;52.474;13.454;2022-11-20T02:00:37;18.63;;;11.80;;
15293;SDS011;7748;52.474;13.454;2022-11-20T02:03:06;20.13;;;11.20;;
15293;SDS011;7748;52.474;13.454;2022-11-20T02:05:36;20.02;;;11.02;;
15293;SDS011;7748;52.474;13.454;2022-11-20T02:08:10;16.37;;;11.03;;
15293;SDS011;7748;52.474;13.454;2022-11-20T02:10:39;18.63;;;10.87;;
15293;SDS011;7748;52.474;13.454;2022-11-20T02:13:07;22.20;;;12.80;;
15293;SDS011;7748;52.474;13.454;2022-11-20T02:15:53;24.60;;;11.90;;
15293;SDS011;7748;52.474;13.454;2022-11-20T02:18:21;20.87;;;11.07;;
15293;SDS011;7748;52.474;13.454;2022-11-20T02:20:52;20.95;;;12.75;;
15293;SDS011;7748;52.474;13.454;2022-11-20T02:23:25;24.97;;;12.50;;
15293;SDS011;7748;52.474;13.454;2022-11-20T02:26:01;18.57;;;11.77;;
15293;SDS011;7748;52.474;13.454;2022-11-20T02:28:30;20.83;;;12.57;;
15293;SDS011;7748;52.474;13.454;2022-11-20T02:30:58;23.10;;;12.90;;
15293;SDS011;7748;52.474;13.454;2022-11-20T02:33:28;21.93;;;12.27;;
15293;SDS011;7748;52.474;13.454;2022-11-20T02:35:55;24.07;;;13.37;;
15293;SDS011;7748;52.474;13.454;2022-11-20T02:38:23;19.83;;;11.17;;
15293;SDS011;7748;52.474;13.454;2022-11-20T02:40:52;17.67;;;11.32;;
15293;SDS011;7748;52.474;13.454;2022-11-20T02:43:22;17.90;;;9.75;;
15293;SDS011;7748;52.474;13.454;2022-11-20T02:45:51;16.40;;;9.93;;
15293;SDS011;7748;52.474;13.454;2022-11-20T02:48:18;18.58;;;10.43;;
15293;SDS011;7748;52.474;13.454;2022-11-20T02:50:49;16.30;;;10.25;;
15293;SDS011;7748;52.474;13.454;2022-11-20T02:53:17;15.63;;;10.67;;
15293;SDS011;7748;52.474;13.454;2022-11-20T02:55:45;17.35;;;10.15;;
15293;SDS011;7748;52.474;13.454;2022-11-20T02:58:13;17.10;;;10.40;;
15293;SDS011;7748;52.474;13.454;2022-11-20T03:00:42;15.35;;;9.68;;
15293;SDS011;7748;52.474;13.454;2022-11-20T03:03:10;17.98;;;11.05;;
15293;SDS011;7748;52.474;13.454;2022-11-20T03:05:38;15.80;;;10.10;;
15293;SDS011;7748;52.474;13.454;2022-11-20T03:08:06;14.10;;;9.27;;
15293;SDS011;7748;52.474;13.454;2022-11-20T03:10:34;16.10;;;10.35;;
15293;SDS011;7748;52.474;13.454;2022-11-20T03:13:02;16.60;;;9.77;;
15293;SDS011;7748;52.474;13.454;2022-11-20T03:15:30;17.05;;;10.52;;
15293;SDS011;7748;52.474;13.454;2022-11-20T03:17:59;18.33;;;9.97;;
15293;SDS011;7748;52.474;13.454;2022-11-20T03:20:27;18.00;;;10.15;;
15293;SDS011;7748;52.474;13.454;2022-11-20T03:22:55;18.80;;;11.00;;
15293;SDS011;7748;52.474;13.454;2022-11-20T03:25:23;15.23;;;10.35;;
15293;SDS011;7748;52.474;13.454;2022-11-20T03:27:51;15.20;;;10.27;;
15293;SDS011;7748;52.474;13.454;2022-11-20T03:30:19;15.68;;;10.38;;
15293;SDS011;7748;52.474;13.454;2022-11-20T03:32:54;15.82;;;11.18;;
15293;SDS011;7748;52.474;13.454;2022-11-20T03:35:23;16.27;;;11.10;;
15293;SDS011;7748;52.474;13.454;2022-11-20T03:37:52;17.27;;;9.43;;
15293;SDS011;7748;52.474;13.454;2022-11-20T03:40:19;13.85;;;9.57;;
15293;SDS011;7748;52.474;13.454;2022-11-20T03:42:47;16.65;;;11.55;;
15293;SDS011;7748;52.474;13.454;2022-11-20T03:45:16;18.77;;;12.00;;
15293;SDS011;7748;52.474;13.454;2022-11-20T03:47:45;17.10;;;10.70;;
15293;SDS011;7748;52.474;13.454;2022-11-20T03:50:13;16.73;;;9.57;;
15293;SDS011;7748;52.474;13.454;2022-11-20T03:52:43;17.30;;;10.80;;
15293;SDS011;7748;52.474;13.454;2022-11-20T03:55:11;15.02;;;9.68;;
15293;SDS011;7748;52.474;13.454;2022-11-20T03:57:39;17.92;;;11.23;;
15293;SDS011;7748;52.474;13.454;2022-11-20T04:00:07;18.40;;;10.38;;
15293;SDS011;7748;52.474;13.454;2022-11-20T04:02:36;18.77;;;10.75;;
15293;SDS011;7748;52.474;13.454;2022-11-20T04:05:04;16.48;;;10.40;;
15293;SDS011;7748;52.474;13.454;2022-11-20T04:07:35;17.33;;;10.80;;
15293;SDS011;7748;52.474;13.454;2022-11-20T04:10:05;17.80;;;11.80;;
15293;SDS011;7748;52.474;13.454;2022-11-20T04:12:34;16.37;;;11.10;;
15293;SDS011;7748;52.474;13.454;2022-11-20T04:15:02;14.85;;;9.90;;
15293;SDS011;7748;52.474;13.454;2022-11-20T04:17:30;16.02;;;10.50;;
15293;SDS011;7748;52.474;13.454;2022-11-20T04:19:58;18.23;;;9.67;;
15293;SDS011;7748;52.474;13.454;2022-11-20T04:22:25;15.55;;;10.35;;
15293;SDS011;7748;52.474;13.454;2022-11-20T04:24:53;17.50;;;11.35;;
15293;SDS011;7748;52.474;13.454;2022-11-20T04:27:23;17.23;;;11.65;;
15293;SDS011;7748;52.474;13.454;2022-11-20T04:29:51;15.70;;;9.82;;
15293;SDS011;7748;52.474;13.454;2022-11-20T04:32:18;18.47;;;11.63;;
15293;SDS011;7748;52.474;13.454;2022-11-20T04:34:46;15.55;;;9.68;;
15293;SDS011;7748;52.474;13.454;2022-11-20T04:37:14;17.23;;;10.75;;
15293;SDS011;7748;52.474;13.454;2022-11-20T04:39:42;18.52;;;11.45;;
15293;SDS011;7748;52.474;13.454;2022-11-20T04:42:10;16.40;;;11.30;;
15293;SDS011;7748;52.474;13.454;2022-11-20T04:44:57;16.73;;;10.60;;
15293;SDS011;7748;52.474;13.454;2022-11-20T04:47:25;15.40;;;9.60;;
15293;SDS011;7748;52.474;13.454;2022-11-20T04:49:53;16.65;;;11.25;;
15293;SDS011;7748;52.474;13.454;2022-11-20T04:52:21;18.83;;;11.20;;
15293;SDS011;7748;52.474;13.454;2022-11-20T04:54:49;16.10;;;10.63;;
15293;SDS011;7748;52.474;13.454;2022-11-20T04:57:19;16.15;;;10.75;;
15293;SDS011;7748;52.474;13.454;2022-11-20T04:59:47;17.13;;;11.25;;
15293;SDS011;7748;52.474;13.454;2022-11-20T05:02:16;18.63;;;10.85;;
15293;SDS011;7748;52.474;13.454;2022-11-20T05:04:44;18.92;;;11.43;;
15293;SDS011;7748;52.474;13.454;2022-11-20T05:07:12;18.63;;;11.35;;
15293;SDS011;7748;52.474;13.454;2022-11-20T05:09:40;16.13;;;10.65;;
15293;SDS011;7748;52.474;13.454;2022-11-20T05:12:08;22.33;;;10.82;;
15293;SDS011;7748;52.474;13.454;2022-11-20T05:14:36;17.35;;;10.40;;
15293;SDS011;7748;52.474;13.454;2022-11-20T05:17:04;16.08;;;9.95;;
15293;SDS011;7748;52.474;13.454;2022-11-20T05:19:33;17.60;;;11.32;;
15293;SDS011;7748;52.474;13.454;2022-11-20T05:22:01;18.02;;;11.55;;
15293;SDS011;7748;52.474;13.454;2022-11-20T05:24:29;19.67;;;11.57;;
15293;SDS011;7748;52.474;13.454;2022-11-20T05:26:57;18.38;;;10.60;;
15293;SDS011;7748;52.474;13.454;2022-11-20T05:29:25;17.33;;;10.77;;
15293;SDS011;7748;52.474;13.454;2022-11-20T05:31:53;16.52;;;10.98;;
15293;SDS011;7748;52.474;13.454;2022-11-20T05:34:20;14.75;;;9.75;;
15293;SDS011;7748;52.474;13.454;2022-11-20T05:36:50;17.83;;;10.43;;
15293;SDS011;7748;52.474;13.454;2022-11-20T05:39:18;16.70;;;10.20;;
15293;SDS011;7748;52.474;13.454;2022-11-20T05:41:46;18.40;;;10.88;;
15293;SDS011;7748;52.474;13.454;2022-11-20T05:44:34;16.63;;;11.43;;
15293;SDS011;7748;52.474;13.454;2022-11-20T05:47:02;20.65;;;10.95;;
15293;SDS011;7748;52.474;13.454;2022-11-20T05:49:30;17.77;;;10.93;;
15293;SDS011;7748;52.474;13.454;2022-11-20T05:52:00;17.42;;;10.98;;
15293;SDS011;7748;52.474;13.454;2022-11-20T05:54:28;15.73;;;10.85;;
15293;SDS011;7748;52.474;13.454;2022-11-20T05:56:56;17.30;;;11.00;;
15293;SDS011;7748;52.474;13.454;2022-11-20T05:59:24;18.00;;;11.50;;
15293;SDS011;7748;52.474;13.454;2022-11-20T06:01:52;20.88;;;11.27;;
15293;SDS011;7748;52.474;13.454;2022-11-20T06:04:19;17.27;;;11.60;;
15293;SDS011;7748;52.474;13.454;2022-11-20T06:06:47;17.63;;;11.05;;
15293;SDS011;7748;52.474;13.454;2022-11-20T06:09:16;18.53;;;11.73;;
15293;SDS011;7748;52.474;13.454;2022-11-20T06:11:45;16.65;;;12.07;;
15293;SDS011;7748;52.474;13.454;2022-11-20T06:14:13;19.27;;;12.98;;
15293;SDS011;7748;52.474;13.454;2022-11-20T06:16:40;20.40;;;12.17;;
15293;SDS011;7748;52.474;13.454;2022-11-20T06:19:08;18.70;;;11.65;;
15293;SDS011;7748;52.474;13.454;2022-11-20T06:21:36;18.47;;;11.80;;
15293;SDS011;7748;52.474;13.454;2022-11-20T06:24:04;17.70;;;11.52;;
15293;SDS011;7748;52.474;13.454;2022-11-20T06:26:34;20.53;;;11.83;;
15293;SDS011;7748;52.474;13.454;2022-11-20T06:29:02;20.97;;;11.90;;
15293;SDS011;7748;52.474;13.454;2022-11-20T06:31:30;19.95;;;11.15;;
15293;SDS011;7748;52.474;13.454;2022-11-20T06:34:01;18.83;;;11.73;;
15293;SDS011;7748;52.474;13.454;2022-11-20T06:36:29;17.53;;;11.70;;
15293;SDS011;7748;52.474;13.454;2022-11-20T06:38:56;20.63;;;11.83;;
15293;SDS011;7748;52.474;13.454;2022-11-20T06:41:24;15.85;;;10.75;;
15293;SDS011;7748;52.474;13.454;2022-11-20T06:43:53;21.23;;;12.20;;
15293;SDS011;7748;52.474;13.454;2022-11-20T06:46:22;15.32;;;10.93;;
15293;SDS011;7748;52.474;13.454;2022-11-20T06:48:49;17.03;;;9.87;;
15293;SDS011;7748;52.474;13.454;2022-11-20T06:51:18;20.00;;;11.33;;
15293;SDS011;7748;52.474;13.454;2022-11-20T06:53:45;16.05;;;10.18;;
15293;SDS011;7748;52.474;13.454;2022-11-20T06:56:13;19.77;;;11.27;;
15293;SDS011;7748;52.474;13.454;2022-11-20T06:58:41;16.80;;;10.43;;
15293;SDS011;7748;52.474;13.454;2022-11-20T07:01:11;20.73;;;12.02;;
15293;SDS011;7748;52.474;13.454;2022-11-20T07:03:41;18.37;;;11.83;;
15293;SDS011;7748;52.474;13.454;2022-11-20T07:06:09;20.97;;;11.03;;
15293;SDS011;7748;52.474;13.454;2022-11-20T07:08:37;18.83;;;10.37;;
15293;SDS011;7748;52.474;13.454;2022-11-20T07:11:05;17.20;;;10.73;;
15293;SDS011;7748;52.474;13.454;2022-11-20T07:13:34;22.30;;;12.80;;
15293;SDS011;7748;52.474;13.454;2022-11-20T07:16:03;14.97;;;9.87;;
15293;SDS011;7748;52.474;13.454;2022-11-20T07:18:33;21.90;;;11.68;;
15293;SDS011;7748;52.474;13.454;2022-11-20T07:21:02;17.83;;;10.68;;
15293;SDS011;7748;52.474;13.454;2022-11-20T07:23:30;15.87;;;9.93;;
15293;SDS011;7748;52.474;13.454;2022-11-20T07:25:58;18.13;;;10.60;;
15293;SDS011;7748;52.474;13.454;2022-11-20T07:28:30;20.43;;;11.67;;
15293;SDS011;7748;52.474;13.454;2022-11-20T07:30:58;15.93;;;10.60;;
15293;SDS011;7748;52.474;13.454;2022-11-20T07:33:26;14.20;;;10.00;;
15293;SDS011;7748;52.474;13.454;2022-11-20T07:35:55;19.47;;;10.90;;
15293;SDS011;7748;52.474;13.454;2022-11-20T07:38:25;17.60;;;10.98;;
15293;SDS011;7748;52.474;13.454;2022-11-20T07:40:53;19.43;;;11.53;;
15293;SDS011;7748;52.474;13.454;2022-11-20T07:43:22;17.67;;;10.93;;
15293;SDS011;7748;52.474;13.454;2022-11-20T07:45:50;16.83;;;10.37;;
15293;SDS011;7748;52.474;13.454;2022-11-20T07:48:18;16.53;;;11.17;;
15293;SDS011;7748;52.474;13.454;2022-11-20T07:50:46;23.03;;;11.87;;
15293;SDS011;7748;52.474;13.454;2022-11-20T07:53:15;23.33;;;13.53;;
15293;SDS011;7748;52.474;13.454;2022-11-20T07:55:47;21.73;;;12.93;;
15293;SDS011;7748;52.474;13.454;2022-11-20T07:58:15;16.50;;;11.63;;
15293;SDS011;7748;52.474;13.454;2022-11-20T08:00:43;19.40;;;11.60;;
15293;SDS011;7748;52.474;13.454;2022-11-20T08:03:11;19.87;;;12.17;;
15293;SDS011;7748;52.474;13.454;2022-11-20T08:05:39;20.00;;;12.63;;
15293;SDS011;7748;52.474;13.454;2022-11-20T08:08:07;20.70;;;11.93;;
15293;SDS011;7748;52.474;13.454;2022-11-20T08:10:36;18.57;;;11.90;;
15293;SDS011;7748;52.474;13.454;2022-11-20T08:13:04;18.87;;;11.33;;
15293;SDS011;7748;52.474;13.454;2022-11-20T08:15:49;18.57;;;11.57;;
15293;SDS011;7748;52.474;13.454;2022-11-20T08:18:18;19.87;;;11.90;;
15293;SDS011;7748;52.474;13.454;2022-11-20T08:20:57;20.50;;;12.20;;
15293;SDS011;7748;52.474;13.454;2022-11-20T08:23:25;20.00;;;12.63;;
15293;SDS011;7748;52.474;13.454;2022-11-20T08:25:54;19.50;;;11.67;;
15293;SDS011;7748;52.474;13.454;2022-11-20T08:28:22;19.47;;;11.80;;
15293;SDS011;7748;52.474;13.454;2022-11-20T08:30:50;20.30;;;11.60;;
15293;SDS011;7748;52.474;13.454;2022-11-20T08:33:18;18.93;;;11.57;;
15293;SDS011;7748;52.474;13.454;2022-11-20T08:35:46;19.27;;;11.70;;
15293;SDS011;7748;52.474;13.454;2022-11-20T08:38:14;17.30;;;11.30;;
15293;SDS011;7748;52.474;13.454;2022-11-20T08:40:41;19.60;;;12.43;;
15293;SDS011;7748;52.474;13.454;2022-11-20T08:43:31;24.90;;;13.60;;
15293;SDS011;7748;52.474;13.454;2022-11-20T08:45:59;21.17;;;12.33;;
15293;SDS011;7748;52.474;13.454;2022-11-20T08:48:27;17.50;;;11.43;;
15293;SDS011;7748;52.474;13.454;2022-11-20T08:50:57;18.27;;;11.00;;
15293;SDS011;7748;52.474;13.454;2022-11-20T08:53:26;18.13;;;12.07;;
15293;SDS011;7748;52.474;13.454;2022-11-20T08:55:54;22.10;;;12.10;;
15293;SDS011;7748;52.474;13.454;2022-11-20T08:58:22;20.10;;;11.73;;
15293;SDS011;7748;52.474;13.454;2022-11-20T09:00:51;18.30;;;12.20;;
15293;SDS011;7748;52.474;13.454;2022-11-20T09:03:19;17.43;;;11.30;;
15293;SDS011;7748;52.474;13.454;2022-11-20T09:05:58;19.90;;;10.97;;
15293;SDS011;7748;52.474;13.454;2022-11-20T09:08:27;20.13;;;11.87;;
15293;SDS011;7748;52.474;13.454;2022-11-20T09:10:56;19.40;;;11.77;;
15293;SDS011;7748;52.474;13.454;2022-11-20T09:13:24;19.80;;;11.70;;
15293;SDS011;7748;52.474;13.454;2022-11-20T09:15:55;23.30;;;15.00;;
15293;SDS011;7748;52.474;13.454;2022-11-20T09:18:24;18.90;;;11.37;;
15293;SDS011;7748;52.474;13.454;2022-11-20T09:20:56;18.60;;;11.00;;
15293;SDS011;7748;52.474;13.454;2022-11-20T09:23:25;17.00;;;12.17;;
15293;SDS011;7748;52.474;13.454;2022-11-20T09:25:53;17.87;;;10.70;;
15293;SDS011;7748;52.474;13.454;2022-11-20T09:28:25;16.70;;;10.73;;
15293;SDS011;7748;52.474;13.454;2022-11-20T09:30:53;17.30;;;10.57;;
15293;SDS011;7748;52.474;13.454;2022-11-20T09:33:22;18.60;;;11.10;;
15293;SDS011;7748;52.474;13.454;2022-11-20T09:35:50;19.87;;;11.43;;
15293;SDS011;7748;52.474;13.454;2022-11-20T09:38:18;17.83;;;11.47;;
15293;SDS011;7748;52.474;13.454;2022-11-20T09:40:48;19.73;;;11.70;;
15293;SDS011;7748;52.474;13.454;2022-11-20T09:43:24;15.23;;;10.70;;
15293;SDS011;7748;52.474;13.454;2022-11-20T09:46:04;20.37;;;10.37;;
15293;SDS011;7748;52.474;13.454;2022-11-20T09:48:41;18.63;;;11.63;;
15293;SDS011;7748;52.474;13.454;2022-11-20T09:51:20;17.67;;;11.57;;
15293;SDS011;7748;52.474;13.454;2022-11-20T09:54:00;19.43;;;11.27;;
15293;SDS011;7748;52.474;13.454;2022-11-20T09:56:39;19.53;;;11.77;;
15293;SDS011;7748;52.474;13.454;2022-11-20T09:59:14;22.00;;;13.37;;
15293;SDS011;7748;52.474;13.454;2022-11-20T10:01:51;16.20;;;10.37;;
15293;SDS011;7748;52.474;13.454;2022-11-20T10:04:21;25.00;;;13.23;;
15293;SDS011;7748;52.474;13.454;2022-11-20T10:06:51;21.67;;;12.33;;
15293;SDS011;7748;52.474;13.454;2022-11-20T10:09:51;18.83;;;11.20;;
15293;SDS011;7748;52.474;13.454;2022-11-20T10:12:23;19.13;;;12.03;;
15293;SDS011;7748;52.474;13.454;2022-11-20T10:15:03;17.60;;;10.67;;
15293;SDS011;7748;52.474;13.454;2022-11-20T10:17:48;16.67;;;10.07;;
15293;SDS011;7748;52.474;13.454;2022-11-20T10:20:26;21.87;;;12.23;;
15293;SDS011;7748;52.474;13.454;2022-11-20T10:23:07;18.17;;;11.17;;
15293;SDS011;7748;52.474;13.454;2022-11-20T10:25:52;18.93;;;11.90;;
15293;SDS011;7748;52.474;13.454;2022-11-20T10:28:30;24.60;;;13.20;;
15293;SDS011;7748;52.474;13.454;2022-11-20T10:31:25;26.43;;;11.87;;
15293;SDS011;7748;52.474;13.454;2022-11-20T10:33:59;21.03;;;12.40;;
15293;SDS011;7748;52.474;13.454;2022-11-20T10:36:40;24.57;;;12.60;;
15293;SDS011;7748;52.474;13.454;2022-11-20T10:39:16;23.97;;;12.87;;
15293;SDS011;7748;52.474;13.454;2022-11-20T10:41:51;20.97;;;13.17;;
15293;SDS011;7748;52.474;13.454;2022-11-20T10:44:20;22.33;;;12.40;;
15293;SDS011;7748;52.474;13.454;2022-11-20T10:47:03;21.53;;;12.63;;
15293;SDS011;7748;52.474;13.454;2022-11-20T10:49:32;20.57;;;13.77;;
15293;SDS011;7748;52.474;13.454;2022-11-20T10:52:04;20.40;;;12.40;;
15293;SDS011;7748;52.474;13.454;2022-11-20T10:54:42;20.27;;;12.70;;
15293;SDS011;7748;52.474;13.454;2022-11-20T10:57:18;19.03;;;12.03;;
15293;SDS011;7748;52.474;13.454;2022-11-20T10:59:58;19.47;;;12.33;;
15293;SDS011;7748;52.474;13.454;2022-11-20T11:02:33;25.03;;;13.33;;
15293;SDS011;7748;52.474;13.454;2022-11-20T11:08:00;20.63;;;12.70;;
15293;SDS011;7748;52.474;13.454;2022-11-20T11:10:32;18.23;;;11.23;;
15293;SDS011;7748;52.474;13.454;2022-11-20T11:13:07;20.33;;;12.77;;
15293;SDS011;7748;52.474;13.454;2022-11-20T11:15:47;16.27;;;10.70;;
15293;SDS011;7748;52.474;13.454;2022-11-20T11:18:22;17.67;;;10.97;;
15293;SDS011;7748;52.474;13.454;2022-11-20T11:20:51;17.80;;;11.83;;
15293;SDS011;7748;52.474;13.454;2022-11-20T11:23:32;18.20;;;11.27;;
15293;SDS011;7748;52.474;13.454;2022-11-20T11:26:04;18.20;;;10.80;;
15293;SDS011;7748;52.474;13.454;2022-11-20T11:28:33;17.60;;;10.67;;
15293;SDS011;7748;52.474;13.454;2022-11-20T11:31:01;20.23;;;11.93;;
15293;SDS011;7748;52.474;13.454;2022-11-20T11:33:30;24.60;;;12.27;;
15293;SDS011;7748;52.474;13.454;2022-11-20T11:36:01;15.57;;;10.27;;
15293;SDS011;7748;52.474;13.454;2022-11-20T11:38:34;18.50;;;11.43;;
15293;SDS011;7748;52.474;13.454;2022-11-20T11:41:04;21.03;;;12.77;;
15293;SDS011;7748;52.474;13.454;2022-11-20T11:43:34;22.30;;;13.50;;
15293;SDS011;7748;52.474;13.454;2022-11-20T11:46:25;17.90;;;10.87;;
15293;SDS011;7748;52.474;13.454;2022-11-20T11:48:57;18.73;;;11.77;;
15293;SDS011;7748;52.474;13.454;2022-11-20T11:51:27;18.00;;;10.90;;
15293;SDS011;7748;52.474;13.454;2022-11-20T11:54:02;19.10;;;12.03;;
15293;SDS011;7748;52.474;13.454;2022-11-20T11:56:40;17.73;;;11.10;;
15293;SDS011;7748;52.474;13.454;2022-11-20T11:59:09;16.80;;;11.53;;
15293;SDS011;7748;52.474;13.454;2022-11-20T12:01:44;15.23;;;9.97;;
15293;SDS011;7748;52.474;13.454;2022-11-20T12:04:20;16.47;;;10.47;;
15293;SDS011;7748;52.474;13.454;2022-11-20T12:06:56;19.63;;;10.80;;
15293;SDS011;7748;52.474;13.454;2022-11-20T12:09:51;16.00;;;9.73;;
15293;SDS011;7748;52.474;13.454;2022-11-20T12:12:23;17.07;;;10.27;;
15293;SDS011;7748;52.474;13.454;2022-11-20T12:14:54;17.77;;;10.37;;
15293;SDS011;7748;52.474;13.454;2022-11-20T12:17:24;15.17;;;10.10;;
15293;SDS011;7748;52.474;13.454;2022-11-20T12:19:52;17.47;;;10.30;;
15293;SDS011;7748;52.474;13.454;2022-11-20T12:22:22;14.83;;;9.30;;
15293;SDS011;7748;52.474;13.454;2022-11-20T12:25:02;19.57;;;10.53;;
15293;SDS011;7748;52.474;13.454;2022-11-20T12:30:36;19.80;;;10.20;;
15293;SDS011;7748;52.474;13.454;2022-11-20T12:33:18;14.00;;;9.53;;
15293;SDS011;7748;52.474;13.454;2022-11-20T12:35:59;15.43;;;10.07;;
15293;SDS011;7748;52.474;13.454;2022-11-20T12:38:40;16.20;;;10.13;;
15293;SDS011;7748;52.474;13.454;2022-11-20T12:41:25;16.00;;;9.63;;
15293;SDS011;7748;52.474;13.454;2022-11-20T12:44:29;15.47;;;9.87;;
15293;SDS011;7748;52.474;13.454;2022-11-20T12:47:29;16.50;;;10.37;;
15293;SDS011;7748;52.474;13.454;2022-11-20T12:50:08;17.17;;;9.63;;
15293;SDS011;7748;52.474;13.454;2022-11-20T12:52:44;19.50;;;10.03;;
15293;SDS011;7748;52.474;13.454;2022-11-20T12:55:16;16.47;;;10.00;;
15293;SDS011;7748;52.474;13.454;2022-11-20T12:57:57;12.53;;;8.53;;
15293;SDS011;7748;52.474;13.454;2022-11-20T13:00:29;12.60;;;7.90;;
15293;SDS011;7748;52.474;13.454;2022-11-20T13:03:12;10.33;;;6.60;;
15293;SDS011;7748;52.474;13.454;2022-11-20T13:05:56;10.37;;;6.33;;
15293;SDS011;7748;52.474;13.454;2022-11-20T13:08:33;11.40;;;7.10;;
15293;SDS011;7748;52.474;13.454;2022-11-20T13:11:03;11.50;;;7.33;;
15293;SDS011;7748;52.474;13.454;2022-11-20T13:13:45;11.30;;;8.00;;
15293;SDS011;7748;52.474;13.454;2022-11-20T13:16:35;12.73;;;7.97;;
15293;SDS011;7748;52.474;13.454;2022-11-20T13:19:08;13.77;;;8.30;;
15293;SDS011;7748;52.474;13.454;2022-11-20T13:21:39;11.47;;;7.60;;
15293;SDS011;7748;52.474;13.454;2022-11-20T13:24:20;12.10;;;7.50;;
15293;SDS011;7748;52.474;13.454;2022-11-20T13:26:59;11.83;;;6.57;;
15293;SDS011;7748;52.474;13.454;2022-11-20T13:29:33;12.40;;;8.10;;
15293;SDS011;7748;52.474;13.454;2022-11-20T13:32:06;13.50;;;7.93;;
15293;SDS011;7748;52.474;13.454;2022-11-20T13:34:50;19.63;;;7.23;;
15293;SDS011;7748;52.474;13.454;2022-11-20T13:37:27;12.27;;;7.50;;
15293;SDS011;7748;52.474;13.454;2022-11-20T13:43:01;10.93;;;7.83;;
15293;SDS011;7748;52.474;13.454;2022-11-20T13:45:36;13.93;;;7.97;;
15293;SDS011;7748;52.474;13.454;2022-11-20T13:48:04;14.97;;;7.67;;
15293;SDS011;7748;52.474;13.454;2022-11-20T13:50:49;11.50;;;7.50;;
15293;SDS011;7748;52.474;13.454;2022-11-20T13:53:29;11.40;;;7.83;;
15293;SDS011;7748;52.474;13.454;2022-11-20T13:56:10;11.20;;;7.47;;
15293;SDS011;7748;52.474;13.454;2022-11-20T13:58:49;11.07;;;7.30;;
15293;SDS011;7748;52.474;13.454;2022-11-20T14:01:32;11.27;;;7.03;;
15293;SDS011;7748;52.474;13.454;2022-11-20T14:04:05;12.77;;;6.80;;
15293;SDS011;7748;52.474;13.454;2022-11-20T14:06:38;9.80;;;6.57;;
15293;SDS011;7748;52.474;13.454;2022-11-20T14:09:11;11.50;;;7.40;;
15293;SDS011;7748;52.474;13.454;2022-11-20T14:11:45;12.83;;;8.07;;
15293;SDS011;7748;52.474;13.454;2022-11-20T14:14:15;13.17;;;7.27;;
15293;SDS011;7748;52.474;13.454;2022-11-20T14:16:47;9.13;;;6.87;;
15293;SDS011;7748;52.474;13.454;2022-11-20T14:19:21;16.00;;;8.30;;
15293;SDS011;7748;52.474;13.454;2022-11-20T14:21:54;12.83;;;7.83;;
15293;SDS011;7748;52.474;13.454;2022-11-20T14:24:34;17.73;;;9.63;;
15293;SDS011;7748;52.474;13.454;2022-11-20T14:27:02;12.03;;;7.97;;
15293;SDS011;7748;52.474;13.454;2022-11-20T14:29:33;12.33;;;7.53;;
15293;SDS011;7748;52.474;13.454;2022-11-20T14:32:04;15.67;;;8.03;;
15293;SDS011;7748;52.474;13.454;2022-11-20T14:34:33;11.70;;;7.40;;
15293;SDS011;7748;52.474;13.454;2022-11-20T14:37:09;9.67;;;7.13;;
15293;SDS011;7748;52.474;13.454;2022-11-20T14:39:42;12.40;;;7.00;;
15293;SDS011;7748;52.474;13.454;2022-11-20T14:42:20;10.43;;;7.37;;
15293;SDS011;7748;52.474;13.454;2022-11-20T14:44:50;11.07;;;7.57;;
15293;SDS011;7748;52.474;13.454;2022-11-20T14:47:21;9.87;;;7.20;;
15293;SDS011;7748;52.474;13.454;2022-11-20T14:49:52;15.03;;;7.87;;
15293;SDS011;7748;52.474;13.454;2022-11-20T14:52:22;12.03;;;7.57;;
15293;SDS011;7748;52.474;13.454;2022-11-20T14:54:52;11.90;;;7.47;;
15293;SDS011;7748;52.474;13.454;2022-11-20T14:57:22;12.27;;;7.40;;
15293;SDS011;7748;52.474;13.454;2022-11-20T15:00:03;12.70;;;7.60;;
15293;SDS011;7748;52.474;13.454;2022-11-20T15:02:34;9.63;;;7.10;;